Terminal Aerodrome Forecast
Issued by NWS Houston/Galveston, TX

Home | Current Version | Previous Version | Text Only | Print | Product List | Glossary On
Versions: 1 2 3 4 5 6 7 8 9 10 11 12 13 14 15 16 17 18
000
FTUS44 KHGX 260606 AAA
TAFCLL
TAF AMD
KCLL 260606Z 2606/2706 17014G24KT P6SM BKN015 OVC025
     FM260900 17017KT P6SM OVC015
      TEMPO 2611/2614 OVC007
     FM261500 20016KT P6SM OVC025
     FM261900 29018G25KT P6SM VCTS SCT040 BKN060CB
     FM262100 33017KT P6SM FEW070
     FM270200 34009KT P6SM SKC=

USA.gov is the U.S. government's official web portal to all federal, state and local government web resources and services.